createdAt,value
2022-08-11T00:01:53.667Z,102224.28
2022-08-11T00:04:23.205Z,102222.25
2022-08-11T00:06:52.139Z,102224.28
2022-08-11T00:09:21.842Z,102219.94
2022-08-11T00:11:50.756Z,102221.13
2022-08-11T00:14:21.251Z,102213.97
2022-08-11T00:16:56.767Z,102216.00
2022-08-11T00:20:12.232Z,102220.13
2022-08-11T00:22:21.450Z,102210.50
2022-08-11T00:24:54.733Z,102208.38
2022-08-11T00:27:33.366Z,102217.22
2022-08-11T00:30:03.147Z,102209.19
2022-08-11T00:32:31.770Z,102207.53
2022-08-11T00:35:55.336Z,102217.00
2022-08-11T00:37:50.575Z,102209.00
2022-08-11T00:40:21.287Z,102206.53
2022-08-11T00:42:56.406Z,102199.06
2022-08-11T00:45:28.267Z,102202.84
2022-08-11T00:48:01.928Z,102197.63
2022-08-11T00:50:36.654Z,102200.16
2022-08-11T00:53:09.639Z,102199.47
2022-08-11T00:55:55.412Z,102200.50
2022-08-11T00:58:53.320Z,102198.47
2022-08-11T01:01:29.941Z,102195.09
2022-08-11T01:04:25.009Z,102200.16
2022-08-11T01:08:01.905Z,102199.13
2022-08-11T01:10:52.852Z,102203.56
2022-08-11T01:13:36.272Z,102208.97
2022-08-11T01:16:14.640Z,102205.06
2022-08-11T01:19:13.076Z,102201.91
2022-08-11T01:22:28.816Z,102209.72
2022-08-11T01:25:57.501Z,102200.84
2022-08-11T01:28:53.334Z,102200.06
2022-08-11T01:31:44.748Z,102201.97
2022-08-11T01:34:49.873Z,102204.50
2022-08-11T01:37:43.624Z,102201.28
2022-08-11T01:40:39.748Z,102208.56
2022-08-11T01:44:13.110Z,102223.41
2022-08-11T01:46:45.152Z,102218.72
2022-08-11T01:50:06.742Z,102227.94
2022-08-11T01:52:16.599Z,102224.06
2022-08-11T01:54:46.234Z,102236.03
2022-08-11T01:57:22.125Z,102230.81
2022-08-11T01:59:51.850Z,102224.47
2022-08-11T02:02:45.978Z,102221.34
2022-08-11T02:05:27.522Z,102226.22
2022-08-11T02:08:01.814Z,102225.25
2022-08-11T02:10:50.409Z,102221.25
2022-08-11T02:13:34.089Z,102210.81
2022-08-11T02:16:09.801Z,102209.78
2022-08-11T02:18:53.413Z,102216.03
2022-08-11T02:21:42.780Z,102201.41
2022-08-11T02:24:15.589Z,102202.13
2022-08-11T02:26:45.803Z,102209.53
2022-08-11T02:29:19.810Z,102194.91
2022-08-11T02:32:28.593Z,102200.13
2022-08-11T02:35:03.124Z,102204.84
2022-08-11T02:37:38.513Z,102199.44
2022-08-11T02:40:20.991Z,102201.13
2022-08-11T02:43:04.309Z,102198.13
2022-08-11T02:45:54.670Z,102209.72
2022-08-11T02:48:57.376Z,102207.56
2022-08-11T02:51:34.379Z,102197.78
2022-08-11T02:54:09.090Z,102205.22
2022-08-11T02:56:44.991Z,102199.34
2022-08-11T02:59:41.830Z,102213.66
2022-08-11T03:02:13.528Z,102206.56
2022-08-11T03:04:48.209Z,102211.94
2022-08-11T03:07:29.112Z,102214.50
2022-08-11T03:10:01.545Z,102203.56
2022-08-11T03:12:53.575Z,102215.66
2022-08-11T03:15:41.372Z,102208.56
2022-08-11T03:18:17.761Z,102203.19
2022-08-11T03:20:47.396Z,102203.56
2022-08-11T03:23:20.600Z,102196.94
2022-08-11T03:25:52.832Z,102207.09
2022-08-11T03:28:30.316Z,102202.41
2022-08-11T03:31:05.765Z,102199.91
2022-08-11T03:33:52.916Z,102198.88
2022-08-11T03:37:15.169Z,102194.84
2022-08-11T03:39:33.237Z,102205.97
2022-08-11T03:42:06.764Z,102202.59
2022-08-11T03:44:47.571Z,102197.03
2022-08-11T03:47:32.067Z,102204.78
2022-08-11T03:50:08.913Z,102198.75
2022-08-11T03:52:50.243Z,102207.34
2022-08-11T03:55:25.114Z,102202.31
2022-08-11T03:58:42.019Z,102198.94
2022-08-11T04:02:07.990Z,102201.31
2022-08-11T04:05:11.289Z,102210.72
2022-08-11T04:08:26.696Z,102211.75
2022-08-11T04:11:19.694Z,102199.13
2022-08-11T04:14:46.302Z,102207.38
2022-08-11T04:17:46.439Z,102202.69
2022-08-11T04:20:31.137Z,102203.88
2022-08-11T04:24:36.255Z,102201.31
2022-08-11T04:26:39.086Z,102202.84
2022-08-11T04:29:20.151Z,102217.66
2022-08-11T04:32:05.331Z,102213.94
2022-08-11T04:34:51.115Z,102207.72
2022-08-11T04:37:36.268Z,102200.81
2022-08-11T04:40:13.422Z,102196.13
2022-08-11T04:43:21.910Z,102206.34
2022-08-11T04:46:10.867Z,102201.97
2022-08-11T04:49:06.004Z,102201.66
2022-08-11T04:52:07.059Z,102200.97
2022-08-11T04:55:03.999Z,102200.13
2022-08-11T04:57:59.064Z,102194.94
2022-08-11T05:00:47.010Z,102196.78
2022-08-11T05:03:37.478Z,102196.44
2022-08-11T05:06:28.231Z,102200.97
2022-08-11T05:09:12.867Z,102202.81
2022-08-11T05:12:01.665Z,102206.34
2022-08-11T05:14:52.305Z,102206.53
2022-08-11T05:17:53.779Z,102206.69
2022-08-11T05:20:39.277Z,102212.41
2022-08-11T05:23:25.451Z,102211.75
2022-08-11T05:26:47.502Z,102199.59
2022-08-11T05:29:21.355Z,102219.44
2022-08-11T05:32:09.782Z,102219.78
2022-08-11T05:34:54.237Z,102223.47
2022-08-11T05:37:27.281Z,102216.09
2022-08-11T05:40:14.960Z,102216.75
2022-08-11T05:43:02.072Z,102222.81
2022-08-11T05:45:58.209Z,102222.97
2022-08-11T05:48:51.862Z,102221.13
2022-08-11T05:51:37.269Z,102215.41
2022-08-11T05:54:28.169Z,102217.59
2022-08-11T05:56:58.360Z,102218.13
2022-08-11T05:59:27.223Z,102224.84
2022-08-11T06:02:01.594Z,102224.84
2022-08-11T06:04:29.816Z,102218.81
2022-08-11T06:06:58.673Z,102223.69
2022-08-11T06:09:28.864Z,102222.19
2022-08-11T06:11:59.466Z,102222.03
2022-08-11T06:14:27.619Z,102226.53
2022-08-11T06:17:00.269Z,102229.59
2022-08-11T06:19:35.914Z,102222.72
2022-08-11T06:22:05.294Z,102224.56
2022-08-11T06:24:33.552Z,102223.53
2022-08-11T06:27:12.325Z,102219.16
2022-08-11T06:29:54.894Z,102214.75
2022-08-11T06:32:26.702Z,102208.53
2022-08-11T06:35:02.682Z,102212.69
2022-08-11T06:37:37.306Z,102207.28
2022-08-11T06:40:08.517Z,102207.94
2022-08-11T06:42:44.666Z,102212.13
2022-08-11T06:45:20.329Z,102219.00
2022-08-11T06:47:49.762Z,102204.25
2022-08-11T06:50:36.231Z,102210.75
2022-08-11T06:53:06.574Z,102200.59
2022-08-11T06:55:55.596Z,102208.94
2022-08-11T06:58:45.742Z,102209.88
2022-08-11T07:01:15.401Z,102202.69
2022-08-11T07:03:46.534Z,102213.72
2022-08-11T07:06:23.967Z,102212.72
2022-08-11T07:09:22.314Z,102210.53
2022-08-11T07:12:33.759Z,102205.84
2022-08-11T07:15:19.594Z,102206.88
2022-08-11T07:18:10.302Z,102208.28
2022-08-11T07:21:01.738Z,102206.94
2022-08-11T07:23:47.941Z,102202.66
2022-08-11T07:26:33.258Z,102191.94
2022-08-11T07:29:01.440Z,102191.56
2022-08-11T07:31:35.784Z,102192.78
2022-08-11T07:34:15.869Z,102201.06
2022-08-11T07:36:51.717Z,102194.13
2022-08-11T07:39:22.157Z,102200.88
2022-08-11T07:41:50.710Z,102206.47
2022-08-11T07:44:18.922Z,102189.03
2022-08-11T07:47:06.043Z,102201.69
2022-08-11T07:49:53.484Z,102203.72
2022-08-11T07:52:29.825Z,102202.56
2022-08-11T07:54:59.210Z,102216.25
2022-08-11T07:58:14.510Z,102203.81
2022-08-11T08:00:54.877Z,102198.75
2022-08-11T08:03:53.985Z,102198.63
2022-08-11T08:06:40.376Z,102198.75
2022-08-11T08:09:27.335Z,102184.19
2022-08-11T08:12:13.147Z,102184.28
2022-08-11T08:14:58.648Z,102186.00
2022-08-11T08:18:08.572Z,102184.53
2022-08-11T08:20:36.605Z,102183.53
2022-08-11T08:23:04.897Z,102178.38
2022-08-11T08:25:35.601Z,102177.31
2022-08-11T08:28:07.061Z,102186.50
2022-08-11T08:30:51.013Z,102179.41
2022-08-11T08:33:21.537Z,102179.41
2022-08-11T08:35:54.357Z,102176.03
2022-08-11T08:38:23.932Z,102177.03
2022-08-11T08:40:56.021Z,102174.72
2022-08-11T08:43:25.059Z,102167.56
2022-08-11T08:45:54.739Z,102166.28
2022-08-11T08:48:22.918Z,102165.66
2022-08-11T08:51:10.961Z,102173.13
2022-08-11T08:53:52.359Z,102172.00
2022-08-11T08:56:28.276Z,102160.59
2022-08-11T08:58:56.635Z,102158.84
2022-08-11T09:01:27.355Z,102167.75
2022-08-11T09:04:04.879Z,102163.28
2022-08-11T09:06:39.858Z,102169.47
2022-08-11T09:09:09.587Z,102161.16
2022-08-11T09:11:57.466Z,102157.94
2022-08-11T09:14:46.774Z,102158.66
2022-08-11T09:17:17.671Z,102151.41
2022-08-11T09:19:49.524Z,102157.13
2022-08-11T09:22:43.325Z,102156.75
2022-08-11T09:25:29.122Z,102148.47
2022-08-11T09:27:58.837Z,102151.69
2022-08-11T09:30:27.704Z,102144.25
2022-08-11T09:32:59.337Z,102154.41
2022-08-11T09:35:27.795Z,102138.88
2022-08-11T09:38:13.721Z,102144.88
2022-08-11T09:40:44.815Z,102142.38
2022-08-11T09:43:35.412Z,102137.81
2022-08-11T09:46:04.197Z,102139.94
2022-08-11T09:48:33.438Z,102132.13
2022-08-11T09:51:02.149Z,102131.91
2022-08-11T09:53:35.201Z,102131.00
2022-08-11T09:56:26.729Z,102137.31
2022-08-11T09:58:56.074Z,102125.13
2022-08-11T10:01:30.361Z,102122.31
2022-08-11T10:04:02.269Z,102121.63
2022-08-11T10:06:48.668Z,102113.78
2022-08-11T10:09:22.957Z,102118.06
2022-08-11T10:11:57.744Z,102122.31
2022-08-11T10:14:48.801Z,102114.44
2022-08-11T10:17:18.236Z,102115.91
2022-08-11T10:20:02.005Z,102102.31
2022-08-11T10:22:50.549Z,102102.69
2022-08-11T10:25:36.485Z,102094.41
2022-08-11T10:28:16.973Z,102101.25
2022-08-11T10:31:13.767Z,102090.63
2022-08-11T10:34:01.710Z,102089.94
2022-08-11T10:36:31.210Z,102088.41
2022-08-11T10:38:59.589Z,102089.66
2022-08-11T10:42:07.440Z,102096.03
2022-08-11T10:44:35.076Z,102074.91
2022-08-11T10:47:22.394Z,102081.75
2022-08-11T10:50:11.046Z,102077.06
2022-08-11T10:52:56.732Z,102069.25
2022-08-11T10:55:42.783Z,102080.03
2022-08-11T10:58:28.513Z,102079.06
2022-08-11T11:00:58.987Z,102081.91
2022-08-11T11:03:29.891Z,102080.88
2022-08-11T11:06:27.549Z,102082.06
2022-08-11T11:08:58.809Z,102070.75
2022-08-11T11:11:56.751Z,102062.22
2022-08-11T11:14:49.220Z,102065.25
2022-08-11T11:17:41.152Z,102059.47
2022-08-11T11:20:37.003Z,102067.16
2022-08-11T11:23:04.517Z,102063.38
2022-08-11T11:26:27.434Z,102059.31
2022-08-11T11:29:25.730Z,102063.19
2022-08-11T11:32:00.450Z,102052.75
2022-08-11T11:34:53.012Z,102053.59
2022-08-11T11:37:24.124Z,102063.75
2022-08-11T11:39:53.593Z,102059.66
2022-08-11T11:42:23.563Z,102047.53
2022-08-11T11:44:55.850Z,102041.69
2022-08-11T11:47:25.042Z,102039.19
2022-08-11T11:49:54.853Z,102046.94
2022-08-11T11:52:24.645Z,102048.50
2022-08-11T11:54:54.978Z,102051.75
2022-08-11T11:57:42.254Z,102041.75
2022-08-11T12:00:47.940Z,102038.34
2022-08-11T12:03:19.581Z,102050.47
2022-08-11T12:05:50.253Z,102039.34
2022-08-11T12:08:27.235Z,102039.22
2022-08-11T12:11:19.003Z,102042.94
2022-08-11T12:13:47.603Z,102035.91
2022-08-11T12:16:33.268Z,102035.50
2022-08-11T12:19:04.410Z,102038.69
2022-08-11T12:21:33.440Z,102033.00
2022-08-11T12:24:21.683Z,102031.69
2022-08-11T12:27:16.596Z,102033.47
2022-08-11T12:29:50.255Z,102021.06
2022-08-11T12:32:23.028Z,102026.16
2022-08-11T12:34:51.262Z,102017.72
2022-08-11T12:37:23.755Z,102017.25
2022-08-11T12:40:49.743Z,102013.47
2022-08-11T12:43:36.889Z,102016.69
2022-08-11T12:46:09.327Z,102011.06
2022-08-11T12:49:00.766Z,102015.56
2022-08-11T12:52:12.925Z,102013.03
2022-08-11T12:54:43.242Z,102007.16
2022-08-11T12:57:37.195Z,102007.09
2022-08-11T13:00:24.039Z,101997.25
2022-08-11T13:03:10.119Z,101995.56
2022-08-11T13:05:44.326Z,101992.88
2022-08-11T13:08:14.043Z,101990.53
2022-08-11T13:11:00.149Z,101986.53
2022-08-11T13:13:53.663Z,101972.31
2022-08-11T13:16:20.778Z,101966.63
2022-08-11T13:18:51.282Z,101983.75
2022-08-11T13:21:23.002Z,101969.09
2022-08-11T13:24:00.895Z,101966.16
2022-08-11T13:26:47.212Z,101971.72
2022-08-11T13:29:24.789Z,101969.53
2022-08-11T13:31:56.457Z,101970.22
2022-08-11T13:34:28.226Z,101975.41
2022-08-11T13:36:57.293Z,101965.06
2022-08-11T13:39:28.886Z,101962.91
2022-08-11T13:41:59.543Z,101974.66
2022-08-11T13:44:32.403Z,101970.13
2022-08-11T13:47:02.560Z,101972.91
2022-08-11T13:49:32.196Z,101959.34
2022-08-11T13:52:04.495Z,101964.50
2022-08-11T13:54:33.833Z,101968.41
2022-08-11T13:57:03.237Z,101958.50
2022-08-11T13:59:45.275Z,101958.66
2022-08-11T14:02:30.226Z,101962.41
2022-08-11T14:05:02.991Z,101957.41
2022-08-11T14:07:35.785Z,101955.84
2022-08-11T14:10:08.754Z,101960.28
2022-08-11T14:12:57.641Z,101951.63
2022-08-11T14:15:34.748Z,101960.47
2022-08-11T14:18:09.280Z,101952.28
2022-08-11T14:20:57.829Z,101949.66
2022-08-11T14:23:36.139Z,101949.84
2022-08-11T14:26:22.885Z,101942.47
2022-08-11T14:28:53.368Z,101943.25
2022-08-11T14:31:23.592Z,101939.00
2022-08-11T14:33:58.143Z,101933.34
2022-08-11T14:36:28.252Z,101932.19
2022-08-11T14:38:56.555Z,101928.84
2022-08-11T14:42:10.960Z,101936.09
2022-08-11T14:44:49.970Z,101931.16
2022-08-11T14:47:23.843Z,101935.56
2022-08-11T14:50:10.339Z,101930.94
2022-08-11T14:52:45.175Z,101927.50
2022-08-11T14:55:31.550Z,101928.22
2022-08-11T14:57:59.808Z,101926.47
2022-08-11T15:00:35.529Z,101922.47
2022-08-11T15:03:13.131Z,101912.97
2022-08-11T15:05:56.015Z,101911.28
2022-08-11T15:08:47.848Z,101904.25
2022-08-11T15:11:36.702Z,101909.84
2022-08-11T15:14:06.164Z,101916.69
2022-08-11T15:16:53.114Z,101907.13
2022-08-11T15:19:28.002Z,101907.28
2022-08-11T15:22:14.276Z,101906.97
2022-08-11T15:24:43.152Z,101898.78
2022-08-11T15:27:31.409Z,101909.56
2022-08-11T15:30:32.953Z,101901.53
2022-08-11T15:33:25.108Z,101905.03
2022-08-11T15:36:13.652Z,101903.25
2022-08-11T15:38:46.068Z,101889.25
2022-08-11T15:41:35.780Z,101892.94
2022-08-11T15:44:44.453Z,101885.44
2022-08-11T15:47:21.008Z,101886.81
2022-08-11T15:50:12.077Z,101882.03
2022-08-11T15:52:51.271Z,101880.63
2022-08-11T15:55:19.896Z,101882.00
2022-08-11T15:58:08.819Z,101873.53
2022-08-11T16:00:58.913Z,101872.59
2022-08-11T16:04:05.685Z,101871.44
2022-08-11T16:06:36.030Z,101877.72
2022-08-11T16:09:08.172Z,101868.66
2022-08-11T16:11:46.759Z,101881.25
2022-08-11T16:14:33.019Z,101871.19
2022-08-11T16:17:01.209Z,101871.09
2022-08-11T16:19:35.863Z,101856.59
2022-08-11T16:22:07.332Z,101860.22
2022-08-11T16:27:09.538Z,101860.22
2022-08-11T16:27:27.403Z,101859.13
2022-08-11T16:29:55.688Z,101863.28
2022-08-11T16:32:25.828Z,101862.56
2022-08-11T16:35:14.804Z,101861.72
2022-08-11T16:38:00.526Z,101856.50
2022-08-11T16:40:31.764Z,101848.19
2022-08-11T16:43:20.856Z,101858.56
2022-08-11T16:46:09.678Z,101853.41
2022-08-11T16:48:39.135Z,101855.66
2022-08-11T16:51:09.742Z,101848.19
2022-08-11T16:53:46.020Z,101854.88
2022-08-11T16:56:33.528Z,101848.88
2022-08-11T16:59:15.578Z,101852.31
2022-08-11T17:01:45.927Z,101842.63
2022-08-11T17:04:35.882Z,101844.94
2022-08-11T17:07:40.383Z,101845.66
2022-08-11T17:10:53.286Z,101839.63
2022-08-11T17:13:28.837Z,101837.34
2022-08-11T17:16:07.809Z,101831.22
2022-08-11T17:18:47.035Z,101836.91
2022-08-11T17:21:21.104Z,101831.81
2022-08-11T17:23:50.952Z,101837.91
2022-08-11T17:26:24.137Z,101827.84
2022-08-11T17:28:56.371Z,101813.44
2022-08-11T17:31:42.223Z,101827.56
2022-08-11T17:34:27.803Z,101820.88
2022-08-11T17:36:56.234Z,101820.66
2022-08-11T17:39:29.833Z,101818.75
2022-08-11T17:42:15.627Z,101814.22
2022-08-11T17:45:02.553Z,101818.84
2022-08-11T17:47:48.178Z,101813.25
2022-08-11T17:50:18.410Z,101816.91
2022-08-11T17:53:04.287Z,101812.78
2022-08-11T17:55:53.194Z,101811.59
2022-08-11T17:58:39.471Z,101800.38
2022-08-11T18:01:11.159Z,101806.59
2022-08-11T18:03:40.813Z,101802.13
2022-08-11T18:06:12.695Z,101802.38
2022-08-11T18:09:02.544Z,101802.19
2022-08-11T18:12:11.240Z,101797.91
2022-08-11T18:14:55.516Z,101797.69
2022-08-11T18:17:42.292Z,101806.16
2022-08-11T18:20:28.644Z,101807.41
2022-08-11T18:23:14.603Z,101803.34
2022-08-11T18:26:02.447Z,101807.63
2022-08-11T18:28:49.136Z,101796.03
2022-08-11T18:31:34.540Z,101797.84
2022-08-11T18:34:23.647Z,101815.22
2022-08-11T18:37:19.542Z,101809.59
2022-08-11T18:40:09.963Z,101805.22
2022-08-11T18:42:55.439Z,101810.00
2022-08-11T18:45:46.112Z,101810.66
2022-08-11T18:48:34.142Z,101808.16
2022-08-11T18:51:36.244Z,101820.50
2022-08-11T18:54:25.981Z,101822.34
2022-08-11T18:57:11.312Z,101826.66
2022-08-11T18:59:57.798Z,101824.34
2022-08-11T19:02:48.385Z,101828.94
2022-08-11T19:06:06.089Z,101821.97
2022-08-11T19:08:41.681Z,101838.03
2022-08-11T19:11:27.444Z,101836.25
2022-08-11T19:14:14.689Z,101834.50
2022-08-11T19:17:00.067Z,101833.31
2022-08-11T19:19:47.670Z,101834.06
2022-08-11T19:22:33.538Z,101839.72
2022-08-11T19:25:25.139Z,101840.13
2022-08-11T19:28:11.984Z,101844.94
2022-08-11T19:30:58.087Z,101848.06
2022-08-11T19:34:00.222Z,101841.31
2022-08-11T19:36:53.427Z,101843.38
2022-08-11T19:39:39.335Z,101848.72
2022-08-11T19:42:29.023Z,101849.56
2022-08-11T19:45:16.469Z,101855.88
2022-08-11T19:48:30.282Z,101867.06
2022-08-11T19:51:07.473Z,101862.88
2022-08-11T19:53:53.388Z,101862.53
2022-08-11T19:56:39.354Z,101870.38
2022-08-11T19:59:26.470Z,101863.47
2022-08-11T20:02:13.186Z,101877.31
2022-08-11T20:04:59.570Z,101881.97
2022-08-11T20:07:45.445Z,101886.13
2022-08-11T20:10:30.897Z,101890.44
2022-08-11T20:13:21.631Z,101893.03
2022-08-11T20:16:10.517Z,101900.28
2022-08-11T20:18:56.033Z,101907.09
2022-08-11T20:21:41.951Z,101903.06
2022-08-11T20:24:27.774Z,101903.75
2022-08-11T20:27:18.960Z,101901.53
2022-08-11T20:30:10.760Z,101914.94
2022-08-11T20:33:00.202Z,101921.09
2022-08-11T20:35:45.666Z,101920.28
2022-08-11T20:38:32.135Z,101906.38
2022-08-11T20:41:17.637Z,101912.91
2022-08-11T20:44:05.608Z,101909.81
2022-08-11T20:46:56.989Z,101916.59
2022-08-11T20:49:53.834Z,101913.28
2022-08-11T20:52:48.166Z,101916.97
2022-08-11T20:55:51.662Z,101934.50
2022-08-11T21:01:44.776Z,101927.63
2022-08-11T21:04:30.817Z,101946.84
2022-08-11T21:07:27.098Z,101934.59
2022-08-11T21:10:22.887Z,101933.97
2022-08-11T21:13:26.197Z,101930.94
2022-08-11T21:16:16.426Z,101935.84
2022-08-11T21:19:14.810Z,101931.13
2022-08-11T21:22:03.424Z,101934.28
2022-08-11T21:24:50.771Z,101933.63
2022-08-11T21:27:36.105Z,101932.88
2022-08-11T21:30:21.889Z,101924.53
2022-08-11T21:33:07.255Z,101935.06
2022-08-11T21:35:52.990Z,101926.34
2022-08-11T21:38:38.215Z,101926.47
2022-08-11T21:41:25.282Z,101929.97
2022-08-11T21:44:11.288Z,101929.25
2022-08-11T21:46:57.288Z,101918.66
2022-08-11T21:49:42.630Z,101925.00
2022-08-11T21:52:27.928Z,101930.25
2022-08-11T21:55:13.285Z,101925.84
2022-08-11T21:58:03.140Z,101920.25
2022-08-11T22:00:48.509Z,101920.06
2022-08-11T22:03:41.107Z,101912.78
2022-08-11T22:06:36.479Z,101914.09
2022-08-11T22:09:22.371Z,101922.09
2022-08-11T22:12:29.824Z,101915.88
2022-08-11T22:15:15.283Z,101918.84
2022-08-11T22:18:01.610Z,101916.63
2022-08-11T22:20:46.934Z,101914.75
2022-08-11T22:23:36.063Z,101922.94
2022-08-11T22:26:22.320Z,101932.16
2022-08-11T22:29:08.158Z,101928.66
2022-08-11T22:31:55.929Z,101928.47
2022-08-11T22:34:51.797Z,101928.50
2022-08-11T22:37:39.378Z,101938.34
2022-08-11T22:40:26.326Z,101939.41
2022-08-11T22:43:11.644Z,101934.38
2022-08-11T22:45:57.099Z,101937.09
2022-08-11T22:48:44.467Z,101928.78
2022-08-11T22:51:29.705Z,101928.78
2022-08-11T22:54:15.128Z,101928.16
2022-08-11T22:57:00.281Z,101939.44
2022-08-11T22:59:45.694Z,101937.56
2022-08-11T23:02:31.156Z,101938.41
2022-08-11T23:05:18.069Z,101936.13
2022-08-11T23:08:03.848Z,101939.25
2022-08-11T23:10:49.146Z,101935.28
2022-08-11T23:13:34.691Z,101942.81
2022-08-11T23:16:21.968Z,101933.59
2022-08-11T23:19:07.863Z,101938.19
2022-08-11T23:21:55.404Z,101927.56
2022-08-11T23:24:41.161Z,101939.66
2022-08-11T23:27:27.688Z,101932.34
2022-08-11T23:30:14.516Z,101942.09
2022-08-11T23:33:04.306Z,101943.75
2022-08-11T23:35:51.935Z,101940.84
2022-08-11T23:38:43.713Z,101940.56
2022-08-11T23:41:29.152Z,101939.97
2022-08-11T23:44:14.598Z,101943.91
2022-08-11T23:47:00.715Z,101934.53
2022-08-11T23:49:46.142Z,101942.41
2022-08-11T23:52:31.444Z,101944.88
2022-08-11T23:55:18.284Z,101937.72
2022-08-11T23:58:03.667Z,101940.59
